createdAt,value
2023-04-12T00:01:52.972Z,100068.28
2023-04-12T00:04:22.983Z,100072.31
2023-04-12T00:06:50.970Z,100071.94
2023-04-12T00:09:17.397Z,100068.63
2023-04-12T00:11:43.905Z,100073.00
2023-04-12T00:14:10.383Z,100074.44
2023-04-12T00:16:38.406Z,100063.63
2023-04-12T00:19:04.863Z,100063.03
2023-04-12T00:21:31.344Z,100067.87
2023-04-12T00:23:57.924Z,100056.25
2023-04-12T00:26:25.779Z,100058.19
2023-04-12T00:28:52.319Z,100048.69
2023-04-12T00:31:18.843Z,100053.56
2023-04-12T00:33:46.252Z,100056.09
2023-04-12T00:36:12.734Z,100062.59
2023-04-12T00:38:39.269Z,100042.06
2023-04-12T00:41:05.959Z,100043.13
2023-04-12T00:43:32.394Z,100038.50
2023-04-12T00:45:58.864Z,100035.28
2023-04-12T00:48:26.600Z,100029.03
2023-04-12T00:50:55.692Z,100032.28
2023-04-12T00:53:22.815Z,100033.31
2023-04-12T00:55:49.266Z,100029.84
2023-04-12T00:58:16.381Z,100028.97
2023-04-12T01:00:45.084Z,100025.09
2023-04-12T01:05:40.229Z,100024.22
2023-04-12T01:08:06.788Z,100019.63
2023-04-12T01:10:33.234Z,100020.78
2023-04-12T01:12:59.661Z,100018.19
2023-04-12T01:15:26.623Z,100013.28
2023-04-12T01:17:53.110Z,100018.47
2023-04-12T01:20:19.840Z,100005.19
2023-04-12T01:22:46.526Z,100004.06
2023-04-12T01:25:12.974Z,100005.91
2023-04-12T01:27:39.712Z,99999.34
2023-04-12T01:30:06.724Z,99999.19
2023-04-12T01:32:33.169Z,100004.47
2023-04-12T01:34:59.616Z,100003.66
2023-04-12T01:37:26.198Z,99998.72
2023-04-12T01:39:52.629Z,99990.62
2023-04-12T01:42:19.064Z,99986.06
2023-04-12T01:44:45.529Z,99980.59
2023-04-12T01:47:11.963Z,99991.22
2023-04-12T01:49:38.435Z,99985.09
2023-04-12T01:52:04.864Z,99977.63
2023-04-12T01:54:31.286Z,99969.84
2023-04-12T01:56:58.152Z,99962.59
2023-04-12T01:59:24.652Z,99960.81
2023-04-12T02:01:51.428Z,99952.75
2023-04-12T02:04:17.922Z,99952.31
2023-04-12T02:06:44.428Z,99937.81
2023-04-12T02:09:10.922Z,99939.66
2023-04-12T02:11:37.412Z,99947.84
2023-04-12T02:14:03.817Z,99939.87
2023-04-12T02:16:30.295Z,99941.31
2023-04-12T02:18:57.675Z,99936.59
2023-04-12T02:21:24.101Z,99936.25
2023-04-12T02:23:50.654Z,99930.81
2023-04-12T02:26:17.136Z,99927.84
2023-04-12T02:28:43.576Z,99924.25
2023-04-12T02:31:10.158Z,99913.28
2023-04-12T02:33:36.908Z,99923.31
2023-04-12T02:36:03.512Z,99919.59
2023-04-12T02:38:29.988Z,99915.16
2023-04-12T02:40:56.683Z,99925.69
2023-04-12T02:43:23.088Z,99923.06
2023-04-12T02:45:49.578Z,99925.53
2023-04-12T02:48:16.044Z,99927.41
2023-04-12T02:50:42.473Z,99923.44
2023-04-12T02:53:08.887Z,99914.28
2023-04-12T02:55:36.971Z,99919.88
2023-04-12T02:58:03.454Z,99908.69
2023-04-12T03:00:29.927Z,99921.22
2023-04-12T03:02:59.105Z,99916.16
2023-04-12T03:05:25.978Z,99921.38
2023-04-12T03:07:52.402Z,99927.72
2023-04-12T03:10:19.133Z,99925.22
2023-04-12T03:12:45.563Z,99917.28
2023-04-12T03:15:12.004Z,99914.28
2023-04-12T03:17:38.524Z,99902.47
2023-04-12T03:20:07.332Z,99905.94
2023-04-12T03:22:33.804Z,99897.84
2023-04-12T03:25:00.265Z,99898.97
2023-04-12T03:27:27.237Z,99887.22
2023-04-12T03:29:53.719Z,99882.59
2023-04-12T03:32:20.964Z,99886.37
2023-04-12T03:34:47.400Z,99883.62
2023-04-12T03:37:13.905Z,99884.13
2023-04-12T03:39:40.436Z,99884.38
2023-04-12T03:42:08.899Z,99883.62
2023-04-12T03:44:38.158Z,99876.94
2023-04-12T03:47:04.598Z,99870.84
2023-04-12T03:49:31.051Z,99872.78
2023-04-12T03:51:58.757Z,99869.63
2023-04-12T03:54:25.342Z,99874.25
2023-04-12T03:56:51.753Z,99861.59
2023-04-12T03:59:18.181Z,99868.34
2023-04-12T04:01:44.723Z,99853.41
2023-04-12T04:04:11.427Z,99854.06
2023-04-12T04:06:38.968Z,99847.97
2023-04-12T04:09:05.826Z,99841.66
2023-04-12T04:11:32.340Z,99848.50
2023-04-12T04:13:58.847Z,99840.72
2023-04-12T04:16:25.403Z,99848.50
2023-04-12T04:18:51.925Z,99841.59
2023-04-12T04:21:19.760Z,99847.38
2023-04-12T04:23:48.164Z,99849.69
2023-04-12T04:26:15.917Z,99844.66
2023-04-12T04:28:45.699Z,99840.53
2023-04-12T04:31:12.124Z,99840.44
2023-04-12T04:33:39.158Z,99833.16
2023-04-12T04:36:05.785Z,99833.81
2023-04-12T04:38:35.464Z,99825.81
2023-04-12T04:41:04.964Z,99831.97
2023-04-12T04:43:31.411Z,99824.28
2023-04-12T04:45:58.100Z,99823.06
2023-04-12T04:48:24.650Z,99826.16
2023-04-12T04:50:54.506Z,99827.75
2023-04-12T04:53:21.358Z,99832.44
2023-04-12T04:55:48.009Z,99828.00
2023-04-12T04:58:14.940Z,99832.63
2023-04-12T05:00:44.950Z,99827.06
2023-04-12T05:03:12.028Z,99828.00
2023-04-12T05:05:38.554Z,99831.59
2023-04-12T05:08:04.977Z,99833.59
2023-04-12T05:10:31.418Z,99820.50
2023-04-12T05:12:57.862Z,99830.97
2023-04-12T05:15:24.289Z,99827.56
2023-04-12T05:17:50.796Z,99823.91
2023-04-12T05:20:17.265Z,99826.94
2023-04-12T05:22:43.704Z,99827.78
2023-04-12T05:25:10.792Z,99822.69
2023-04-12T05:27:37.214Z,99819.13
2023-04-12T05:30:04.225Z,99815.34
2023-04-12T05:32:31.374Z,99810.91
2023-04-12T05:34:57.998Z,99809.06
2023-04-12T05:37:24.441Z,99811.00
2023-04-12T05:39:50.961Z,99803.87
2023-04-12T05:42:17.666Z,99803.16
2023-04-12T05:44:46.956Z,99790.84
2023-04-12T05:47:14.467Z,99779.06
2023-04-12T05:49:41.088Z,99777.31
2023-04-12T05:52:07.678Z,99776.41
2023-04-12T05:54:34.095Z,99771.28
2023-04-12T05:57:00.566Z,99763.34
2023-04-12T05:59:27.004Z,99758.38
2023-04-12T06:01:53.482Z,99757.53
2023-04-12T06:04:20.098Z,99750.81
2023-04-12T06:06:47.648Z,99743.91
2023-04-12T06:09:15.181Z,99747.81
2023-04-12T06:11:41.627Z,99736.25
2023-04-12T06:14:09.436Z,99731.88
2023-04-12T06:16:37.044Z,99732.22
2023-04-12T06:19:03.648Z,99720.47
2023-04-12T06:21:30.195Z,99711.91
2023-04-12T06:23:56.641Z,99716.31
2023-04-12T06:26:23.130Z,99693.19
2023-04-12T06:28:49.557Z,99692.91
2023-04-12T06:31:16.040Z,99691.28
2023-04-12T06:33:42.841Z,99680.84
2023-04-12T06:36:09.333Z,99680.69
2023-04-12T06:38:35.836Z,99668.47
2023-04-12T06:41:02.250Z,99661.94
2023-04-12T06:43:28.806Z,99656.56
2023-04-12T06:45:57.184Z,99653.94
2023-04-12T06:48:23.664Z,99660.44
2023-04-12T06:50:50.092Z,99657.78
2023-04-12T06:53:16.658Z,99658.91
2023-04-12T06:55:43.085Z,99644.31
2023-04-12T07:01:14.796Z,99640.63
2023-04-12T07:03:41.430Z,99639.09
2023-04-12T07:06:21.875Z,99630.59
2023-04-12T07:08:51.270Z,99626.97
2023-04-12T07:11:21.409Z,99623.81
2023-04-12T07:13:48.575Z,99619.50
2023-04-12T07:16:15.021Z,99623.22
2023-04-12T07:18:41.754Z,99623.81
2023-04-12T07:21:08.187Z,99619.41
2023-04-12T07:23:34.670Z,99614.78
2023-04-12T07:26:01.840Z,99614.66
2023-04-12T07:28:28.336Z,99607.59
2023-04-12T07:30:54.858Z,99607.75
2023-04-12T07:33:21.341Z,99607.31
2023-04-12T07:35:47.863Z,99596.81
2023-04-12T07:38:16.562Z,99589.00
2023-04-12T07:40:43.344Z,99576.13
2023-04-12T07:43:09.870Z,99585.19
2023-04-12T07:45:37.244Z,99577.94
2023-04-12T07:48:04.373Z,99580.94
2023-04-12T07:50:30.884Z,99574.31
2023-04-12T07:52:57.325Z,99566.66
2023-04-12T07:55:23.848Z,99565.44
2023-04-12T07:57:50.311Z,99557.81
2023-04-12T08:00:18.264Z,99552.41
2023-04-12T08:02:44.840Z,99544.91
2023-04-12T08:05:11.422Z,99537.91
2023-04-12T08:07:37.948Z,99531.66
2023-04-12T08:10:04.390Z,99519.13
2023-04-12T08:12:31.070Z,99527.13
2023-04-12T08:14:57.537Z,99509.56
2023-04-12T08:17:24.368Z,99511.47
2023-04-12T08:19:50.800Z,99499.16
2023-04-12T08:22:17.213Z,99505.78
2023-04-12T08:24:43.651Z,99500.47
2023-04-12T08:27:11.750Z,99495.66
2023-04-12T08:29:38.210Z,99487.81
2023-04-12T08:32:05.415Z,99494.09
2023-04-12T08:34:33.294Z,99488.19
2023-04-12T08:37:00.942Z,99491.91
2023-04-12T08:39:27.367Z,99482.53
2023-04-12T08:41:53.846Z,99472.31
2023-04-12T08:44:20.630Z,99476.59
2023-04-12T08:46:47.107Z,99461.75
2023-04-12T08:49:17.317Z,99465.81
2023-04-12T08:51:43.804Z,99464.62
2023-04-12T08:54:10.407Z,99467.50
2023-04-12T08:56:37.052Z,99457.28
2023-04-12T08:59:03.577Z,99450.88
2023-04-12T09:01:30.207Z,99458.28
2023-04-12T09:03:57.097Z,99452.59
2023-04-12T09:06:23.955Z,99449.25
2023-04-12T09:08:50.401Z,99447.03
2023-04-12T09:11:16.814Z,99435.25
2023-04-12T09:13:43.241Z,99444.59
2023-04-12T09:16:09.752Z,99440.59
2023-04-12T09:18:36.367Z,99450.34
2023-04-12T09:21:02.902Z,99442.34
2023-04-12T09:23:29.403Z,99428.69
2023-04-12T09:25:55.903Z,99430.84
2023-04-12T09:28:22.411Z,99420.81
2023-04-12T09:30:51.978Z,99410.44
2023-04-12T09:33:18.574Z,99415.31
2023-04-12T09:35:45.157Z,99410.50
2023-04-12T09:38:11.647Z,99411.19
2023-04-12T09:40:38.120Z,99408.69
2023-04-12T09:43:04.640Z,99391.22
2023-04-12T09:45:31.833Z,99389.59
2023-04-12T09:47:58.341Z,99385.41
2023-04-12T09:50:24.821Z,99391.44
2023-04-12T09:52:51.430Z,99375.34
2023-04-12T09:55:17.856Z,99378.84
2023-04-12T09:57:44.365Z,99366.78
2023-04-12T10:00:20.442Z,99360.81
2023-04-12T10:02:47.550Z,99358.13
2023-04-12T10:05:14.530Z,99355.22
2023-04-12T10:07:42.461Z,99355.03
2023-04-12T10:10:09.287Z,99345.84
2023-04-12T10:12:35.701Z,99342.84
2023-04-12T10:15:02.158Z,99332.53
2023-04-12T10:17:28.716Z,99329.03
2023-04-12T10:19:55.195Z,99316.44
2023-04-12T10:22:21.664Z,99323.41
2023-04-12T10:24:48.062Z,99302.16
2023-04-12T10:27:15.676Z,99312.78
2023-04-12T10:29:43.419Z,99304.31
2023-04-12T10:32:09.920Z,99302.94
2023-04-12T10:34:36.435Z,99292.16
2023-04-12T10:37:03.084Z,99294.13
2023-04-12T10:39:29.545Z,99296.88
2023-04-12T10:41:57.064Z,99293.63
2023-04-12T10:44:23.565Z,99288.44
2023-04-12T10:46:50.158Z,99295.25
2023-04-12T10:49:17.354Z,99286.88
2023-04-12T10:51:43.872Z,99288.12
2023-04-12T10:54:10.946Z,99278.47
2023-04-12T10:56:38.621Z,99276.41
2023-04-12T10:59:05.445Z,99268.44
2023-04-12T11:01:32.349Z,99254.78
2023-04-12T11:03:59.146Z,99259.59
2023-04-12T11:06:27.526Z,99249.97
2023-04-12T11:08:54.408Z,99247.56
2023-04-12T11:11:23.875Z,99250.38
2023-04-12T11:13:50.364Z,99247.13
2023-04-12T11:16:16.873Z,99247.16
2023-04-12T11:18:43.431Z,99233.47
2023-04-12T11:21:10.024Z,99237.84
2023-04-12T11:23:36.570Z,99235.88
2023-04-12T11:26:03.060Z,99231.87
2023-04-12T11:28:31.290Z,99236.31
2023-04-12T11:30:59.685Z,99219.84
2023-04-12T11:33:26.336Z,99216.22
2023-04-12T11:35:52.779Z,99211.41
2023-04-12T11:38:19.202Z,99212.16
2023-04-12T11:40:45.702Z,99210.59
2023-04-12T11:43:12.608Z,99209.31
2023-04-12T11:45:39.054Z,99206.13
2023-04-12T11:48:05.705Z,99170.78
2023-04-12T11:50:32.623Z,99179.97
2023-04-12T11:52:59.151Z,99176.34
2023-04-12T11:55:25.580Z,99169.56
2023-04-12T11:57:52.358Z,99168.81
2023-04-12T12:00:18.780Z,99169.97
2023-04-12T12:02:52.529Z,99143.09
2023-04-12T12:05:22.914Z,99153.13
2023-04-12T12:07:49.487Z,99135.50
2023-04-12T12:10:27.545Z,99140.72
2023-04-12T12:12:59.193Z,99135.50
2023-04-12T12:15:25.720Z,99125.06
2023-04-12T12:17:52.182Z,99124.25
2023-04-12T12:20:18.756Z,99115.03
2023-04-12T12:22:45.207Z,99117.41
2023-04-12T12:25:11.814Z,99104.13
2023-04-12T12:27:38.290Z,99110.19
2023-04-12T12:30:05.073Z,99084.41
2023-04-12T12:32:32.864Z,99085.00
2023-04-12T12:34:59.317Z,99081.66
2023-04-12T12:37:26.138Z,99074.59
2023-04-12T12:39:52.577Z,99066.44
2023-04-12T12:42:18.996Z,99060.97
2023-04-12T12:44:45.441Z,99062.72
2023-04-12T12:47:14.362Z,99049.06
2023-04-12T12:49:41.161Z,99053.16
2023-04-12T12:52:07.804Z,99057.88
2023-04-12T12:54:40.995Z,99048.25
2023-04-12T12:57:07.811Z,99051.38
2023-04-12T12:59:34.240Z,99036.88
2023-04-12T13:02:00.814Z,99034.50
2023-04-12T13:04:27.417Z,99018.03
2023-04-12T13:06:54.021Z,99041.41
2023-04-12T13:09:20.631Z,99040.66
2023-04-12T13:11:47.079Z,99034.66
2023-04-12T13:14:13.502Z,99025.03
2023-04-12T13:16:41.118Z,99019.31
2023-04-12T13:19:07.645Z,99020.88
2023-04-12T13:21:34.108Z,99021.72
2023-04-12T13:24:00.641Z,99006.88
2023-04-12T13:26:27.284Z,99010.31
2023-04-12T13:28:53.725Z,98999.16
2023-04-12T13:31:20.176Z,99002.66
2023-04-12T13:33:46.656Z,99002.06
2023-04-12T13:36:13.116Z,98993.75
2023-04-12T13:38:39.528Z,98987.34
2023-04-12T13:41:05.984Z,98993.25
2023-04-12T13:43:32.503Z,98992.91
2023-04-12T13:45:59.769Z,98998.50
2023-04-12T13:48:26.502Z,98990.50
2023-04-12T13:50:54.307Z,98990.06
2023-04-12T13:53:22.197Z,98995.34
2023-04-12T13:55:50.384Z,98990.53
2023-04-12T13:58:17.389Z,98987.37
2023-04-12T14:00:43.801Z,98978.50
2023-04-12T14:03:10.298Z,98968.50
2023-04-12T14:05:36.762Z,98970.09
2023-04-12T14:08:03.209Z,98973.34
2023-04-12T14:10:29.689Z,98976.97
2023-04-12T14:12:56.141Z,98966.53
2023-04-12T14:15:22.654Z,98964.50
2023-04-12T14:17:49.215Z,98965.66
2023-04-12T14:20:17.376Z,98966.41
2023-04-12T14:22:45.691Z,98972.87
2023-04-12T14:25:12.112Z,98974.50
2023-04-12T14:27:38.630Z,98974.13
2023-04-12T14:30:05.092Z,98972.94
2023-04-12T14:32:31.568Z,98987.41
2023-04-12T14:34:58.174Z,98979.31
2023-04-12T14:37:24.675Z,98993.75
2023-04-12T14:39:51.339Z,98985.72
2023-04-12T14:42:17.746Z,98990.56
2023-04-12T14:44:44.158Z,98984.84
2023-04-12T14:47:10.590Z,98991.72
2023-04-12T14:49:37.324Z,98990.09
2023-04-12T14:52:04.610Z,98994.09
2023-04-12T14:54:31.173Z,98992.88
2023-04-12T14:56:58.053Z,98996.41
2023-04-12T14:59:25.131Z,99001.63
2023-04-12T15:01:52.927Z,98993.97
2023-04-12T15:04:19.693Z,99006.25
2023-04-12T15:06:46.319Z,99009.69
2023-04-12T15:09:13.335Z,99006.94
2023-04-12T15:11:46.409Z,99009.16
2023-04-12T15:14:17.998Z,98997.03
2023-04-12T15:16:44.648Z,99002.47
2023-04-12T15:19:17.084Z,98995.59
2023-04-12T15:21:46.926Z,98999.56
2023-04-12T15:24:13.373Z,99000.34
2023-04-12T15:26:39.810Z,99006.06
2023-04-12T15:29:06.843Z,98992.97
2023-04-12T15:31:33.310Z,98989.03
2023-04-12T15:34:00.484Z,98986.16
2023-04-12T15:36:33.949Z,98990.50
2023-04-12T15:39:00.867Z,99001.84
2023-04-12T15:41:27.428Z,99001.00
2023-04-12T15:43:54.062Z,98988.66
2023-04-12T15:46:20.612Z,98991.69
2023-04-12T15:48:48.222Z,98978.78
2023-04-12T15:51:14.690Z,98980.34
2023-04-12T15:53:42.772Z,98970.50
2023-04-12T15:56:09.187Z,98977.72
2023-04-12T15:58:35.644Z,98966.94
2023-04-12T16:01:02.060Z,98966.94
2023-04-12T16:03:28.686Z,98960.06
2023-04-12T16:05:56.893Z,98955.38
2023-04-12T16:08:23.402Z,98964.59
2023-04-12T16:10:49.941Z,98961.75
2023-04-12T16:13:16.358Z,98947.19
2023-04-12T16:15:42.899Z,98942.09
2023-04-12T16:18:09.496Z,98943.75
2023-04-12T16:20:36.079Z,98942.94
2023-04-12T16:23:03.821Z,98934.00
2023-04-12T16:25:30.385Z,98940.44
2023-04-12T16:27:57.398Z,98927.69
2023-04-12T16:30:24.422Z,98927.59
2023-04-12T16:32:51.480Z,98917.28
2023-04-12T16:35:17.936Z,98921.31
2023-04-12T16:37:44.443Z,98916.09
2023-04-12T16:40:12.770Z,98907.78
2023-04-12T16:42:39.358Z,98903.72
2023-04-12T16:45:05.772Z,98893.41
2023-04-12T16:47:32.194Z,98897.88
2023-04-12T16:49:58.690Z,98888.84
2023-04-12T16:52:25.168Z,98880.44
2023-04-12T16:54:51.810Z,98881.19
2023-04-12T16:57:18.316Z,98871.56
2023-04-12T16:59:44.821Z,98867.19
2023-04-12T17:02:11.842Z,98866.31
2023-04-12T17:04:38.533Z,98862.62
2023-04-12T17:07:05.375Z,98850.31
2023-04-12T17:09:31.814Z,98857.94
2023-04-12T17:11:59.292Z,98857.84
2023-04-12T17:14:25.734Z,98851.09
2023-04-12T17:16:52.147Z,98855.09
2023-04-12T17:19:20.425Z,98856.22
2023-04-12T17:21:48.213Z,98857.06
2023-04-12T17:24:14.771Z,98853.09
2023-04-12T17:26:41.241Z,98852.06
2023-04-12T17:29:07.739Z,98847.44
2023-04-12T17:34:01.934Z,98851.44
2023-04-12T17:36:31.692Z,98859.41
2023-04-12T17:38:58.446Z,98851.78
2023-04-12T17:41:25.162Z,98851.31
2023-04-12T17:43:51.581Z,98855.03
2023-04-12T17:46:18.020Z,98857.84
2023-04-12T17:48:44.567Z,98855.44
2023-04-12T17:51:11.168Z,98861.38
2023-04-12T17:53:37.619Z,98865.81
2023-04-12T17:56:04.721Z,98856.19
2023-04-12T17:58:31.227Z,98862.09
2023-04-12T18:00:57.649Z,98857.81
2023-04-12T18:03:24.194Z,98857.41
2023-04-12T18:05:50.859Z,98851.81
2023-04-12T18:08:17.312Z,98859.31
2023-04-12T18:10:43.782Z,98847.75
2023-04-12T18:13:10.257Z,98851.28
2023-04-12T18:15:36.884Z,98841.75
2023-04-12T18:18:03.522Z,98849.66
2023-04-12T18:20:29.971Z,98850.78
2023-04-12T18:22:56.414Z,98847.12
2023-04-12T18:25:22.851Z,98850.44
2023-04-12T18:27:49.316Z,98839.66
2023-04-12T18:30:17.440Z,98835.41
2023-04-12T18:32:43.947Z,98837.31
2023-04-12T18:35:11.074Z,98836.25
2023-04-12T18:37:37.591Z,98829.94
2023-04-12T18:40:14.332Z,98834.31
2023-04-12T18:42:40.970Z,98850.28
2023-04-12T18:45:07.388Z,98841.50
2023-04-12T18:47:33.903Z,98837.84
2023-04-12T18:50:00.365Z,98831.84
2023-04-12T18:52:26.821Z,98835.00
2023-04-12T18:54:53.282Z,98843.88
2023-04-12T18:57:19.725Z,98846.09
2023-04-12T18:59:48.037Z,98842.53
2023-04-12T19:02:15.307Z,98849.81
2023-04-12T19:04:42.265Z,98848.19
2023-04-12T19:07:08.687Z,98851.66
2023-04-12T19:09:35.096Z,98854.06
2023-04-12T19:12:01.544Z,98855.19
2023-04-12T19:14:30.677Z,98844.34
2023-04-12T19:16:57.536Z,98851.44
2023-04-12T19:19:23.957Z,98843.03
2023-04-12T19:21:50.365Z,98846.66
2023-04-12T19:24:16.785Z,98837.41
2023-04-12T19:26:47.378Z,98844.63
2023-04-12T19:29:15.428Z,98845.78
2023-04-12T19:31:43.427Z,98853.00
2023-04-12T19:34:09.959Z,98840.13
2023-04-12T19:36:40.318Z,98829.00
2023-04-12T19:39:06.891Z,98833.44
2023-04-12T19:41:33.375Z,98832.59
2023-04-12T19:44:00.137Z,98821.09
2023-04-12T19:46:27.113Z,98823.81
2023-04-12T19:48:53.637Z,98800.31
2023-04-12T19:51:20.155Z,98787.50
2023-04-12T19:53:49.287Z,98784.69
2023-04-12T19:56:15.706Z,98773.59
2023-04-12T19:58:42.341Z,98768.34
2023-04-12T20:01:10.058Z,98769.94
2023-04-12T20:03:41.390Z,98767.81
2023-04-12T20:06:08.964Z,98757.88
2023-04-12T20:08:35.833Z,98767.41
2023-04-12T20:11:02.654Z,98764.63
2023-04-12T20:13:30.948Z,98767.38
2023-04-12T20:15:57.577Z,98768.19
2023-04-12T20:18:24.042Z,98774.63
2023-04-12T20:20:51.221Z,98802.56
2023-04-12T20:23:17.824Z,98780.19
2023-04-12T20:25:49.165Z,98790.56
2023-04-12T20:28:15.723Z,98815.75
2023-04-12T20:30:42.866Z,98805.37
2023-04-12T20:33:09.456Z,98814.88
2023-04-12T20:35:36.023Z,98814.53
2023-04-12T20:38:02.769Z,98822.47
2023-04-12T20:40:30.126Z,98822.97
2023-04-12T20:42:57.067Z,98813.03
2023-04-12T20:45:23.607Z,98815.38
2023-04-12T20:47:50.109Z,98825.06
2023-04-12T20:50:17.734Z,98822.63
2023-04-12T20:52:45.621Z,98829.00
2023-04-12T20:55:14.256Z,98837.03
2023-04-12T20:57:41.012Z,98841.47
2023-04-12T21:00:17.622Z,98835.84
2023-04-12T21:02:45.480Z,98831.81
2023-04-12T21:05:12.251Z,98823.38
2023-04-12T21:07:41.436Z,98829.31
2023-04-12T21:10:08.040Z,98817.69
2023-04-12T21:12:35.019Z,98828.97
2023-04-12T21:15:01.503Z,98833.81
2023-04-12T21:17:30.384Z,98835.53
2023-04-12T21:19:58.436Z,98833.09
2023-04-12T21:22:24.855Z,98824.16
2023-04-12T21:24:51.314Z,98821.81
2023-04-12T21:27:17.768Z,98823.47
2023-04-12T21:29:44.882Z,98817.53
2023-04-12T21:32:11.418Z,98806.28
2023-04-12T21:34:37.895Z,98813.56
2023-04-12T21:37:04.464Z,98828.75
2023-04-12T21:39:30.863Z,98837.13
2023-04-12T21:41:58.251Z,98829.09
2023-04-12T21:44:24.893Z,98828.66
2023-04-12T21:46:51.951Z,98812.66
2023-04-12T21:49:18.459Z,98817.34
2023-04-12T21:51:46.020Z,98826.56
2023-04-12T21:54:12.749Z,98828.34
2023-04-12T21:56:39.159Z,98828.69
2023-04-12T21:59:07.022Z,98828.34
2023-04-12T22:01:33.639Z,98825.06
2023-04-12T22:04:00.919Z,98822.97
2023-04-12T22:06:27.585Z,98821.13
2023-04-12T22:08:54.031Z,98824.69
2023-04-12T22:11:20.924Z,98819.13
2023-04-12T22:13:47.560Z,98821.50
2023-04-12T22:16:14.204Z,98811.50
2023-04-12T22:18:40.965Z,98811.53
2023-04-12T22:21:08.332Z,98818.59
2023-04-12T22:23:38.878Z,98831.00
2023-04-12T22:26:05.299Z,98825.75
2023-04-12T22:28:31.846Z,98836.94
2023-04-12T22:31:00.144Z,98817.78
2023-04-12T22:33:27.330Z,98815.88
2023-04-12T22:35:53.915Z,98816.19
2023-04-12T22:38:20.357Z,98812.19
2023-04-12T22:40:49.882Z,98822.25
2023-04-12T22:43:18.389Z,98832.50
2023-04-12T22:45:47.942Z,98830.19
2023-04-12T22:48:17.480Z,98837.53
2023-04-12T22:50:45.207Z,98833.09
2023-04-12T22:53:11.649Z,98831.53
2023-04-12T22:55:38.421Z,98839.47
2023-04-12T22:58:07.193Z,98842.31
2023-04-12T23:00:35.266Z,98848.72
2023-04-12T23:03:02.853Z,98847.50
2023-04-12T23:05:29.563Z,98851.84
2023-04-12T23:07:56.110Z,98855.09
2023-04-12T23:10:23.164Z,98858.31
2023-04-12T23:12:49.813Z,98866.75
2023-04-12T23:15:17.103Z,98863.84
2023-04-12T23:17:43.627Z,98870.25
2023-04-12T23:20:13.220Z,98867.88
2023-04-12T23:22:57.333Z,98867.03
2023-04-12T23:25:24.577Z,98869.28
2023-04-12T23:27:51.037Z,98879.34
2023-04-12T23:30:17.555Z,98879.34
2023-04-12T23:32:44.324Z,98871.91
2023-04-12T23:35:10.806Z,98875.75
2023-04-12T23:37:37.285Z,98869.06
2023-04-12T23:40:07.007Z,98870.69
2023-04-12T23:42:33.444Z,98877.84
2023-04-12T23:45:00.190Z,98871.50
2023-04-12T23:47:27.312Z,98875.06
2023-04-12T23:49:53.751Z,98875.84
2023-04-12T23:52:20.236Z,98869.53
2023-04-12T23:54:46.641Z,98879.13
2023-04-12T23:57:13.138Z,98880.28
2023-04-12T23:59:39.587Z,98885.03
